sensor_id;sensor_type;location;lat;lon;timestamp;pressure;altitude;pressure_sealevel;temperature;humidity
16431;BME280;8325;49.284;7.238;2022-07-22T04:02:17;99161.22;;;16.64;77.60
16431;BME280;8325;49.284;7.238;2022-07-22T04:06:30;99163.22;;;16.62;77.61
16431;BME280;8325;49.284;7.238;2022-07-22T04:10:49;99155.75;;;16.66;77.60
16431;BME280;8325;49.284;7.238;2022-07-22T04:15:01;99163.06;;;16.70;77.78
16431;BME280;8325;49.284;7.238;2022-07-22T04:19:13;99159.84;;;16.75;77.66
16431;BME280;8325;49.284;7.238;2022-07-22T04:23:46;99162.28;;;16.76;77.69
16431;BME280;8325;49.284;7.238;2022-07-22T04:28:06;99151.56;;;16.78;77.24
16431;BME280;8325;49.284;7.238;2022-07-22T04:32:18;99151.16;;;16.81;77.34
16431;BME280;8325;49.284;7.238;2022-07-22T04:36:30;99150.16;;;16.89;77.66
16431;BME280;8325;49.284;7.238;2022-07-22T04:40:43;99146.06;;;16.86;78.34
16431;BME280;8325;49.284;7.238;2022-07-22T04:44:54;99148.31;;;16.83;78.57
16431;BME280;8325;49.284;7.238;2022-07-22T04:49:06;99151.59;;;16.98;77.78
16431;BME280;8325;49.284;7.238;2022-07-22T04:53:18;99147.13;;;17.05;77.30
16431;BME280;8325;49.284;7.238;2022-07-22T04:57:52;99144.13;;;17.21;76.28
16431;BME280;8325;49.284;7.238;2022-07-22T05:02:08;99139.00;;;17.33;76.02
16431;BME280;8325;49.284;7.238;2022-07-22T05:06:29;99138.63;;;17.49;75.81
16431;BME280;8325;49.284;7.238;2022-07-22T05:10:50;99138.59;;;17.69;75.71
16431;BME280;8325;49.284;7.238;2022-07-22T05:15:06;99125.22;;;17.64;74.93
16431;BME280;8325;49.284;7.238;2022-07-22T05:19:50;99128.03;;;17.69;75.32
16431;BME280;8325;49.284;7.238;2022-07-22T05:24:09;99125.38;;;17.76;76.02
16431;BME280;8325;49.284;7.238;2022-07-22T05:39:30;99116.69;;;20.53;67.54
16431;BME280;8325;49.284;7.238;2022-07-22T05:43:59;99106.44;;;23.52;56.00
16431;BME280;8325;49.284;7.238;2022-07-22T05:48:20;99095.72;;;24.84;51.66
16431;BME280;8325;49.284;7.238;2022-07-22T05:52:32;99091.94;;;26.91;46.34
16431;BME280;8325;49.284;7.238;2022-07-22T05:56:43;99095.69;;;27.51;45.09
16431;BME280;8325;49.284;7.238;2022-07-22T06:00:55;99098.00;;;29.22;40.75
16431;BME280;8325;49.284;7.238;2022-07-22T06:05:07;99089.56;;;29.33;40.32
16431;BME280;8325;49.284;7.238;2022-07-22T06:09:19;99096.38;;;30.03;39.04
16431;BME280;8325;49.284;7.238;2022-07-22T06:13:32;99090.47;;;29.24;39.63
16431;BME280;8325;49.284;7.238;2022-07-22T06:17:43;99100.09;;;29.83;38.67
16431;BME280;8325;49.284;7.238;2022-07-22T06:21:56;99100.50;;;28.79;40.16
16431;BME280;8325;49.284;7.238;2022-07-22T06:26:07;99093.47;;;29.22;39.35
16431;BME280;8325;49.284;7.238;2022-07-22T06:30:19;99084.81;;;29.25;40.01
16431;BME280;8325;49.284;7.238;2022-07-22T06:34:31;99094.22;;;27.99;41.96
16431;BME280;8325;49.284;7.238;2022-07-22T06:38:47;99095.69;;;27.36;43.54
16431;BME280;8325;49.284;7.238;2022-07-22T06:43:05;99096.44;;;28.37;41.70
16431;BME280;8325;49.284;7.238;2022-07-22T06:47:35;99104.81;;;26.73;44.82
16431;BME280;8325;49.284;7.238;2022-07-22T06:51:49;99102.50;;;26.14;46.79
16431;BME280;8325;49.284;7.238;2022-07-22T06:56:02;99092.94;;;25.33;48.66
16431;BME280;8325;49.284;7.238;2022-07-22T07:00:18;99100.84;;;24.91;49.95
16431;BME280;8325;49.284;7.238;2022-07-22T07:04:50;99099.63;;;24.44;51.32
16431;BME280;8325;49.284;7.238;2022-07-22T07:09:02;99087.69;;;24.52;51.87
16431;BME280;8325;49.284;7.238;2022-07-22T07:13:15;99108.44;;;24.01;52.10
16431;BME280;8325;49.284;7.238;2022-07-22T07:17:28;99087.63;;;24.25;52.03
16431;BME280;8325;49.284;7.238;2022-07-22T07:21:40;99088.44;;;23.64;53.87
16431;BME280;8325;49.284;7.238;2022-07-22T07:25:52;99082.75;;;23.95;52.98
16431;BME280;8325;49.284;7.238;2022-07-22T07:30:05;99081.78;;;24.28;52.32
16431;BME280;8325;49.284;7.238;2022-07-22T07:34:17;99079.09;;;23.62;54.29
16431;BME280;8325;49.284;7.238;2022-07-22T07:38:29;99072.44;;;23.64;54.08
16431;BME280;8325;49.284;7.238;2022-07-22T07:42:41;99057.25;;;23.82;53.59
16431;BME280;8325;49.284;7.238;2022-07-22T07:46:59;99057.44;;;23.58;54.54
16431;BME280;8325;49.284;7.238;2022-07-22T07:51:11;99059.44;;;23.46;54.98
16431;BME280;8325;49.284;7.238;2022-07-22T07:55:25;99061.22;;;24.01;53.11
16431;BME280;8325;49.284;7.238;2022-07-22T07:59:38;99062.53;;;23.60;54.46
16431;BME280;8325;49.284;7.238;2022-07-22T08:03:51;99057.97;;;23.55;55.52
16431;BME280;8325;49.284;7.238;2022-07-22T08:08:22;99051.72;;;24.10;53.09
16431;BME280;8325;49.284;7.238;2022-07-22T08:12:36;99046.56;;;24.53;52.15
16431;BME280;8325;49.284;7.238;2022-07-22T08:17:20;99047.44;;;24.09;53.08
16431;BME280;8325;49.284;7.238;2022-07-22T08:21:32;99048.56;;;24.41;53.26
16431;BME280;8325;49.284;7.238;2022-07-22T08:26:00;99056.13;;;24.00;53.68
16431;BME280;8325;49.284;7.238;2022-07-22T08:30:12;99051.69;;;24.32;52.82
16431;BME280;8325;49.284;7.238;2022-07-22T08:34:23;99047.66;;;24.30;52.76
16431;BME280;8325;49.284;7.238;2022-07-22T08:38:35;99049.44;;;23.97;53.46
16431;BME280;8325;49.284;7.238;2022-07-22T08:42:48;99046.13;;;24.12;53.94
16431;BME280;8325;49.284;7.238;2022-07-22T08:47:01;99047.66;;;24.30;53.73
16431;BME280;8325;49.284;7.238;2022-07-22T08:51:50;99038.69;;;23.92;54.45
16431;BME280;8325;49.284;7.238;2022-07-22T08:56:05;99039.63;;;24.03;54.23
16431;BME280;8325;49.284;7.238;2022-07-22T09:00:20;99030.22;;;24.22;54.03
16431;BME280;8325;49.284;7.238;2022-07-22T09:04:49;99043.41;;;24.07;54.12
16431;BME280;8325;49.284;7.238;2022-07-22T09:09:04;99036.66;;;23.99;54.37
16431;BME280;8325;49.284;7.238;2022-07-22T09:13:47;99042.66;;;24.11;54.37
16431;BME280;8325;49.284;7.238;2022-07-22T09:18:24;99031.31;;;23.99;54.70
16431;BME280;8325;49.284;7.238;2022-07-22T09:22:55;99030.75;;;24.46;53.77
16431;BME280;8325;49.284;7.238;2022-07-22T09:27:10;99028.53;;;24.65;53.62
16431;BME280;8325;49.284;7.238;2022-07-22T09:31:34;99029.50;;;24.54;53.50
16431;BME280;8325;49.284;7.238;2022-07-22T09:36:04;99013.50;;;24.32;54.09
16431;BME280;8325;49.284;7.238;2022-07-22T09:44:34;98995.84;;;24.85;52.82
16431;BME280;8325;49.284;7.238;2022-07-22T09:48:57;98989.59;;;25.12;52.40
16431;BME280;8325;49.284;7.238;2022-07-22T09:53:26;98984.75;;;25.09;51.67
16431;BME280;8325;49.284;7.238;2022-07-22T09:57:54;98979.00;;;25.22;51.85
16431;BME280;8325;49.284;7.238;2022-07-22T10:02:06;98981.78;;;25.05;51.33
16431;BME280;8325;49.284;7.238;2022-07-22T10:06:19;98969.44;;;25.31;52.10
16431;BME280;8325;49.284;7.238;2022-07-22T10:10:32;98971.19;;;25.68;50.58
16431;BME280;8325;49.284;7.238;2022-07-22T10:14:45;98974.72;;;25.26;51.23
16431;BME280;8325;49.284;7.238;2022-07-22T10:18:57;98956.22;;;25.77;50.76
16431;BME280;8325;49.284;7.238;2022-07-22T10:23:11;98957.59;;;25.85;49.97
16431;BME280;8325;49.284;7.238;2022-07-22T10:27:43;98953.66;;;26.08;49.52
16431;BME280;8325;49.284;7.238;2022-07-22T10:36:36;98935.47;;;26.56;48.59
16431;BME280;8325;49.284;7.238;2022-07-22T10:45:09;98935.44;;;26.25;48.31
16431;BME280;8325;49.284;7.238;2022-07-22T10:49:23;98929.84;;;26.27;48.46
16431;BME280;8325;49.284;7.238;2022-07-22T10:57:53;98936.53;;;26.60;47.91
16431;BME280;8325;49.284;7.238;2022-07-22T11:02:05;98927.97;;;26.63;48.11
16431;BME280;8325;49.284;7.238;2022-07-22T11:06:28;98922.28;;;26.90;47.28
16431;BME280;8325;49.284;7.238;2022-07-22T11:10:47;98908.56;;;27.12;46.85
16431;BME280;8325;49.284;7.238;2022-07-22T11:15:00;98900.84;;;26.95;46.64
16431;BME280;8325;49.284;7.238;2022-07-22T11:19:12;98909.94;;;27.04;46.06
16431;BME280;8325;49.284;7.238;2022-07-22T11:23:27;98899.72;;;27.22;45.68
16431;BME280;8325;49.284;7.238;2022-07-22T11:27:39;98893.41;;;27.52;45.42
16431;BME280;8325;49.284;7.238;2022-07-22T11:31:51;98890.84;;;27.76;45.31
16431;BME280;8325;49.284;7.238;2022-07-22T11:36:07;98892.09;;;27.94;44.62
16431;BME280;8325;49.284;7.238;2022-07-22T11:40:21;98877.97;;;28.17;44.69
16431;BME280;8325;49.284;7.238;2022-07-22T11:44:35;98883.78;;;28.30;43.14
16431;BME280;8325;49.284;7.238;2022-07-22T11:48:47;98875.19;;;28.28;43.43
16431;BME280;8325;49.284;7.238;2022-07-22T11:53:02;98871.50;;;28.53;43.43
16431;BME280;8325;49.284;7.238;2022-07-22T11:57:14;98858.25;;;28.85;42.31
16431;BME280;8325;49.284;7.238;2022-07-22T12:01:27;98866.41;;;29.04;42.44
16431;BME280;8325;49.284;7.238;2022-07-22T12:05:39;98857.06;;;28.73;42.42
16431;BME280;8325;49.284;7.238;2022-07-22T12:09:51;98848.91;;;28.78;42.77
16431;BME280;8325;49.284;7.238;2022-07-22T12:14:09;98845.03;;;28.89;42.26
16431;BME280;8325;49.284;7.238;2022-07-22T12:18:27;98833.56;;;28.25;42.22
16431;BME280;8325;49.284;7.238;2022-07-22T12:22:46;98831.13;;;28.82;42.80
16431;BME280;8325;49.284;7.238;2022-07-22T12:27:20;98839.66;;;28.89;40.55
16431;BME280;8325;49.284;7.238;2022-07-22T12:31:41;98839.44;;;28.85;40.08
16431;BME280;8325;49.284;7.238;2022-07-22T12:36:02;98821.47;;;28.81;41.86
16431;BME280;8325;49.284;7.238;2022-07-22T12:40:19;98817.69;;;29.25;41.08
16431;BME280;8325;49.284;7.238;2022-07-22T12:44:31;98817.16;;;29.66;40.55
16431;BME280;8325;49.284;7.238;2022-07-22T12:48:53;98803.59;;;29.71;39.12
16431;BME280;8325;49.284;7.238;2022-07-22T12:53:09;98809.25;;;29.88;38.87
16431;BME280;8325;49.284;7.238;2022-07-22T12:57:27;98801.69;;;29.52;39.65
16431;BME280;8325;49.284;7.238;2022-07-22T13:01:38;98805.72;;;29.36;40.35
16431;BME280;8325;49.284;7.238;2022-07-22T13:05:52;98800.97;;;29.09;40.37
16431;BME280;8325;49.284;7.238;2022-07-22T13:10:05;98801.84;;;29.04;40.75
16431;BME280;8325;49.284;7.238;2022-07-22T13:14:19;98789.16;;;29.10;40.22
16431;BME280;8325;49.284;7.238;2022-07-22T13:18:30;98795.41;;;29.00;40.00
16431;BME280;8325;49.284;7.238;2022-07-22T13:22:42;98800.09;;;28.71;40.95
16431;BME280;8325;49.284;7.238;2022-07-22T13:26:54;98799.47;;;28.79;40.20
16431;BME280;8325;49.284;7.238;2022-07-22T13:31:06;98797.59;;;28.98;39.86
16431;BME280;8325;49.284;7.238;2022-07-22T13:35:17;98792.09;;;29.46;39.09
16431;BME280;8325;49.284;7.238;2022-07-22T13:39:29;98787.84;;;29.64;38.79
16431;BME280;8325;49.284;7.238;2022-07-22T13:43:40;98791.47;;;30.06;37.55
16431;BME280;8325;49.284;7.238;2022-07-22T13:47:52;98780.44;;;29.89;36.97
16431;BME280;8325;49.284;7.238;2022-07-22T13:52:04;98786.63;;;30.36;37.10
16431;BME280;8325;49.284;7.238;2022-07-22T13:56:16;98773.84;;;30.69;36.44
16431;BME280;8325;49.284;7.238;2022-07-22T14:00:28;98762.31;;;30.82;35.92
16431;BME280;8325;49.284;7.238;2022-07-22T14:04:40;98766.22;;;31.12;35.92
16431;BME280;8325;49.284;7.238;2022-07-22T14:08:51;98766.63;;;31.19;35.26
16431;BME280;8325;49.284;7.238;2022-07-22T14:13:03;98782.06;;;31.28;35.18
16431;BME280;8325;49.284;7.238;2022-07-22T14:17:15;98793.47;;;31.25;35.26
16431;BME280;8325;49.284;7.238;2022-07-22T14:21:33;98793.41;;;31.16;35.04
16431;BME280;8325;49.284;7.238;2022-07-22T14:25:45;98783.78;;;31.24;34.72
16431;BME280;8325;49.284;7.238;2022-07-22T14:30:01;98792.25;;;30.94;35.64
16431;BME280;8325;49.284;7.238;2022-07-22T14:34:12;98786.72;;;31.00;35.45
16431;BME280;8325;49.284;7.238;2022-07-22T14:38:24;98784.81;;;30.72;35.17
16431;BME280;8325;49.284;7.238;2022-07-22T14:42:35;98777.06;;;30.43;35.72
16431;BME280;8325;49.284;7.238;2022-07-22T14:46:47;98777.56;;;30.32;36.04
16431;BME280;8325;49.284;7.238;2022-07-22T14:50:59;98767.59;;;30.46;36.88
16431;BME280;8325;49.284;7.238;2022-07-22T14:55:11;98759.69;;;30.36;36.60
16431;BME280;8325;49.284;7.238;2022-07-22T14:59:23;98756.00;;;30.45;36.19
16431;BME280;8325;49.284;7.238;2022-07-22T15:03:36;98746.00;;;30.60;35.59
16431;BME280;8325;49.284;7.238;2022-07-22T15:07:48;98730.03;;;30.77;34.88
16431;BME280;8325;49.284;7.238;2022-07-22T15:12:00;98737.63;;;30.89;34.83
16431;BME280;8325;49.284;7.238;2022-07-22T15:16:11;98725.22;;;30.88;35.42
16431;BME280;8325;49.284;7.238;2022-07-22T15:20:24;98722.75;;;30.64;36.16
16431;BME280;8325;49.284;7.238;2022-07-22T15:24:36;98729.44;;;30.53;35.09
16431;BME280;8325;49.284;7.238;2022-07-22T15:28:48;98724.28;;;30.42;34.82
16431;BME280;8325;49.284;7.238;2022-07-22T15:33:01;98717.09;;;30.52;34.72
16431;BME280;8325;49.284;7.238;2022-07-22T15:37:13;98710.78;;;30.70;34.60
16431;BME280;8325;49.284;7.238;2022-07-22T15:41:31;98714.25;;;30.84;34.60
16431;BME280;8325;49.284;7.238;2022-07-22T15:45:43;98714.16;;;30.89;33.48
16431;BME280;8325;49.284;7.238;2022-07-22T15:49:55;98731.56;;;31.06;34.05
16431;BME280;8325;49.284;7.238;2022-07-22T15:54:07;98727.78;;;31.07;33.65
16431;BME280;8325;49.284;7.238;2022-07-22T15:58:18;98719.53;;;30.89;33.85
16431;BME280;8325;49.284;7.238;2022-07-22T16:02:48;98728.13;;;30.91;34.03
16431;BME280;8325;49.284;7.238;2022-07-22T16:07:00;98727.75;;;30.70;33.93
16431;BME280;8325;49.284;7.238;2022-07-22T16:11:14;98721.75;;;30.60;33.75
16431;BME280;8325;49.284;7.238;2022-07-22T16:15:26;98735.75;;;30.34;34.72
16431;BME280;8325;49.284;7.238;2022-07-22T16:19:37;98735.41;;;30.08;34.67
16431;BME280;8325;49.284;7.238;2022-07-22T16:23:49;98755.44;;;30.02;35.08
16431;BME280;8325;49.284;7.238;2022-07-22T16:28:01;98747.06;;;29.90;34.94
16431;BME280;8325;49.284;7.238;2022-07-22T16:32:14;98755.44;;;30.02;34.93
16431;BME280;8325;49.284;7.238;2022-07-22T16:36:26;98751.88;;;30.20;34.78
16431;BME280;8325;49.284;7.238;2022-07-22T16:40:38;98753.22;;;30.37;34.37
16431;BME280;8325;49.284;7.238;2022-07-22T16:44:49;98717.84;;;30.11;34.10
16431;BME280;8325;49.284;7.238;2022-07-22T16:49:01;98683.19;;;29.76;33.73
16431;BME280;8325;49.284;7.238;2022-07-22T16:53:13;98675.75;;;29.54;34.99
16431;BME280;8325;49.284;7.238;2022-07-22T16:57:25;98662.63;;;29.34;35.10
16431;BME280;8325;49.284;7.238;2022-07-22T17:01:38;98662.88;;;29.19;35.59
16431;BME280;8325;49.284;7.238;2022-07-22T17:05:49;98671.03;;;29.13;35.33
16431;BME280;8325;49.284;7.238;2022-07-22T17:10:01;98688.69;;;29.01;35.59
16431;BME280;8325;49.284;7.238;2022-07-22T17:14:13;98701.25;;;28.86;36.08
16431;BME280;8325;49.284;7.238;2022-07-22T17:18:26;98707.63;;;28.72;36.71
16431;BME280;8325;49.284;7.238;2022-07-22T17:22:38;98710.50;;;28.56;36.51
16431;BME280;8325;49.284;7.238;2022-07-22T17:26:51;98704.53;;;28.40;39.18
16431;BME280;8325;49.284;7.238;2022-07-22T17:31:05;98703.47;;;28.12;43.07
16431;BME280;8325;49.284;7.238;2022-07-22T17:35:16;98699.31;;;27.67;45.10
16431;BME280;8325;49.284;7.238;2022-07-22T17:39:28;98712.44;;;27.39;45.60
16431;BME280;8325;49.284;7.238;2022-07-22T17:43:45;98719.75;;;27.28;48.34
16431;BME280;8325;49.284;7.238;2022-07-22T17:47:57;98715.59;;;27.02;46.82
16431;BME280;8325;49.284;7.238;2022-07-22T17:52:09;98721.53;;;26.99;47.61
16431;BME280;8325;49.284;7.238;2022-07-22T17:56:21;98721.03;;;26.92;47.99
16431;BME280;8325;49.284;7.238;2022-07-22T18:00:42;98719.72;;;26.84;47.90
16431;BME280;8325;49.284;7.238;2022-07-22T18:04:54;98719.78;;;26.79;47.33
16431;BME280;8325;49.284;7.238;2022-07-22T18:09:06;98711.75;;;26.69;46.58
16431;BME280;8325;49.284;7.238;2022-07-22T18:13:18;98727.06;;;26.63;48.04
16431;BME280;8325;49.284;7.238;2022-07-22T18:17:29;98726.00;;;26.54;48.81
16431;BME280;8325;49.284;7.238;2022-07-22T18:21:41;98724.16;;;26.49;50.57
16431;BME280;8325;49.284;7.238;2022-07-22T18:25:52;98728.72;;;26.49;51.38
16431;BME280;8325;49.284;7.238;2022-07-22T18:30:04;98708.91;;;26.39;52.51
16431;BME280;8325;49.284;7.238;2022-07-22T18:34:16;98692.06;;;26.29;52.86
16431;BME280;8325;49.284;7.238;2022-07-22T18:38:28;98682.50;;;26.17;52.18
16431;BME280;8325;49.284;7.238;2022-07-22T18:42:39;98676.34;;;26.12;52.37
16431;BME280;8325;49.284;7.238;2022-07-22T18:46:51;98658.41;;;26.07;51.90
16431;BME280;8325;49.284;7.238;2022-07-22T18:51:03;98637.84;;;26.03;52.49
16431;BME280;8325;49.284;7.238;2022-07-22T18:55:15;98649.88;;;25.95;53.43
16431;BME280;8325;49.284;7.238;2022-07-22T18:59:27;98663.03;;;25.86;56.61
16431;BME280;8325;49.284;7.238;2022-07-22T19:03:39;98666.75;;;25.70;57.22
16431;BME280;8325;49.284;7.238;2022-07-22T19:07:50;98667.31;;;25.52;56.59
16431;BME280;8325;49.284;7.238;2022-07-22T19:12:02;98689.78;;;25.45;56.71
16431;BME280;8325;49.284;7.238;2022-07-22T19:16:14;98674.56;;;25.41;54.46
16431;BME280;8325;49.284;7.238;2022-07-22T19:20:25;98675.34;;;25.21;55.50
16431;BME280;8325;49.284;7.238;2022-07-22T19:24:37;98675.28;;;25.06;56.20
16431;BME280;8325;49.284;7.238;2022-07-22T19:28:48;98679.03;;;24.94;57.47
16431;BME280;8325;49.284;7.238;2022-07-22T19:33:00;98686.75;;;24.86;58.08
16431;BME280;8325;49.284;7.238;2022-07-22T19:37:11;98707.06;;;24.82;58.22
16431;BME280;8325;49.284;7.238;2022-07-22T19:41:24;98711.03;;;24.74;59.54
16431;BME280;8325;49.284;7.238;2022-07-22T19:45:36;98700.56;;;24.57;60.60
16431;BME280;8325;49.284;7.238;2022-07-22T19:49:47;98697.56;;;24.43;60.44
16431;BME280;8325;49.284;7.238;2022-07-22T19:54:00;98704.19;;;24.35;60.84
16431;BME280;8325;49.284;7.238;2022-07-22T19:58:11;98696.38;;;24.24;61.10
16431;BME280;8325;49.284;7.238;2022-07-22T20:02:23;98705.38;;;24.12;61.11
16431;BME280;8325;49.284;7.238;2022-07-22T20:06:34;98696.53;;;24.07;61.16
16431;BME280;8325;49.284;7.238;2022-07-22T20:10:46;98701.31;;;24.00;61.02
16431;BME280;8325;49.284;7.238;2022-07-22T20:14:58;98707.16;;;23.97;60.54
16431;BME280;8325;49.284;7.238;2022-07-22T20:19:16;98712.69;;;23.85;61.83
16431;BME280;8325;49.284;7.238;2022-07-22T20:23:29;98733.78;;;23.86;61.39
16431;BME280;8325;49.284;7.238;2022-07-22T20:27:40;98753.31;;;23.97;60.64
16431;BME280;8325;49.284;7.238;2022-07-22T20:31:52;98745.69;;;23.79;61.45
16431;BME280;8325;49.284;7.238;2022-07-22T20:36:04;98758.13;;;23.68;61.67
16431;BME280;8325;49.284;7.238;2022-07-22T20:40:16;98763.13;;;23.59;61.99
16431;BME280;8325;49.284;7.238;2022-07-22T20:44:27;98748.66;;;23.50;62.99
16431;BME280;8325;49.284;7.238;2022-07-22T20:48:39;98726.13;;;23.36;62.35
16431;BME280;8325;49.284;7.238;2022-07-22T20:52:51;98711.75;;;23.37;61.97
16431;BME280;8325;49.284;7.238;2022-07-22T20:57:03;98730.94;;;23.39;62.92
16431;BME280;8325;49.284;7.238;2022-07-22T21:06:48;98743.59;;;23.22;62.39
16431;BME280;8325;49.284;7.238;2022-07-22T21:11:21;98759.94;;;23.08;61.99
16431;BME280;8325;49.284;7.238;2022-07-22T21:15:47;98736.09;;;22.96;60.67
16431;BME280;8325;49.284;7.238;2022-07-22T21:19:58;98734.00;;;22.98;60.88
16431;BME280;8325;49.284;7.238;2022-07-22T21:24:14;98744.56;;;22.93;62.85
16431;BME280;8325;49.284;7.238;2022-07-22T21:28:39;98751.22;;;22.91;63.75
